createdAt,value
2018-09-02T00:01:02.096Z,702
2018-09-02T00:02:09.314Z,702
2018-09-02T00:03:16.534Z,702
2018-09-02T00:04:23.766Z,701
2018-09-02T00:05:30.981Z,701
2018-09-02T00:06:38.266Z,701
2018-09-02T00:07:45.472Z,701
2018-09-02T00:08:52.694Z,700
2018-09-02T00:09:59.627Z,700
2018-09-02T00:11:06.847Z,700
2018-09-02T00:12:14.066Z,700
2018-09-02T00:13:21.003Z,700
2018-09-02T00:14:28.222Z,699
2018-09-02T00:15:35.175Z,699
2018-09-02T00:16:42.396Z,699
2018-09-02T00:17:49.606Z,699
2018-09-02T00:18:56.822Z,699
2018-09-02T00:20:04.052Z,698
2018-09-02T00:21:11.275Z,699
2018-09-02T00:22:18.509Z,697
2018-09-02T00:23:25.726Z,698
2018-09-02T00:24:32.955Z,698
2018-09-02T00:25:40.176Z,698
2018-09-02T00:26:47.124Z,698
2018-09-02T00:27:54.342Z,697
2018-09-02T00:29:01.281Z,697
2018-09-02T00:30:08.219Z,698
2018-09-02T00:31:15.453Z,697
2018-09-02T00:32:22.659Z,697
2018-09-02T00:33:29.893Z,697
2018-09-02T00:34:37.113Z,696
2018-09-02T00:35:44.328Z,696
2018-09-02T00:36:51.546Z,696
2018-09-02T00:37:58.766Z,696
2018-09-02T00:39:05.983Z,697
2018-09-02T00:40:13.203Z,696
2018-09-02T00:41:20.143Z,696
2018-09-02T00:42:27.375Z,695
2018-09-02T00:43:34.638Z,696
2018-09-02T00:44:41.874Z,697
2018-09-02T00:45:49.092Z,696
2018-09-02T00:46:56.307Z,695
2018-09-02T00:48:03.529Z,695
2018-09-02T00:49:10.742Z,696
2018-09-02T00:50:17.687Z,696
2018-09-02T00:51:24.908Z,695
2018-09-02T00:52:32.119Z,695
2018-09-02T00:53:39.334Z,695
2018-09-02T00:54:46.550Z,695
2018-09-02T00:55:53.771Z,695
2018-09-02T00:57:00.989Z,693
2018-09-02T00:58:08.226Z,694
2018-09-02T00:59:15.461Z,694
2018-09-02T01:00:22.415Z,694
2018-09-02T01:01:29.634Z,694
2018-09-02T01:02:36.869Z,694
2018-09-02T01:03:44.084Z,695
2018-09-02T01:04:51.300Z,694
2018-09-02T01:05:58.520Z,694
2018-09-02T01:07:05.738Z,693
2018-09-02T01:08:12.955Z,694
2018-09-02T01:09:20.187Z,695
2018-09-02T01:10:27.126Z,693
2018-09-02T01:11:34.364Z,693
2018-09-02T01:12:41.578Z,694
2018-09-02T01:13:48.809Z,695
2018-09-02T01:14:56.027Z,695
2018-09-02T01:16:02.968Z,696
2018-09-02T01:17:10.177Z,696
2018-09-02T01:18:17.386Z,696
2018-09-02T01:19:24.335Z,695
2018-09-02T01:20:31.296Z,696
2018-09-02T01:21:38.505Z,696
2018-09-02T01:22:45.734Z,696
2018-09-02T01:23:52.947Z,696
2018-09-02T01:25:00.162Z,695
2018-09-02T01:26:07.382Z,696
2018-09-02T01:27:14.616Z,696
2018-09-02T01:28:21.830Z,696
2018-09-02T01:29:28.785Z,696
2018-09-02T01:30:35.727Z,697
2018-09-02T01:31:42.941Z,697
2018-09-02T01:32:50.155Z,697
2018-09-02T01:33:57.372Z,697
2018-09-02T01:35:04.592Z,695
2018-09-02T01:36:11.811Z,698
2018-09-02T01:37:19.021Z,696
2018-09-02T01:38:26.253Z,696
2018-09-02T01:39:33.473Z,698
2018-09-02T01:40:40.437Z,697
2018-09-02T01:41:47.666Z,696
2018-09-02T01:42:54.883Z,698
2018-09-02T01:44:01.828Z,696
2018-09-02T01:45:09.046Z,697
2018-09-02T01:46:16.262Z,698
2018-09-02T01:47:23.475Z,698
2018-09-02T01:48:30.455Z,697
2018-09-02T01:49:37.684Z,697
2018-09-02T01:50:44.900Z,696
2018-09-02T01:51:52.114Z,696
2018-09-02T01:52:59.330Z,698
2018-09-02T01:54:06.561Z,697
2018-09-02T01:55:13.770Z,696
2018-09-02T01:56:20.713Z,695
2018-09-02T01:57:27.958Z,697
2018-09-02T01:58:34.901Z,696
2018-09-02T01:59:42.120Z,695
2018-09-02T02:00:49.058Z,694
2018-09-02T02:01:56.275Z,694
2018-09-02T02:03:03.494Z,693
2018-09-02T02:04:10.707Z,695
2018-09-02T02:05:17.660Z,693
2018-09-02T02:06:24.876Z,692
2018-09-02T02:07:32.110Z,692
2018-09-02T02:08:53.976Z,693
2018-09-02T02:10:01.203Z,693
2018-09-02T02:11:08.408Z,694
2018-09-02T02:12:15.630Z,692
2018-09-02T02:13:22.850Z,692
2018-09-02T02:14:29.788Z,692
2018-09-02T02:15:37.025Z,692
2018-09-02T02:16:44.239Z,691
2018-09-02T02:17:51.459Z,691
2018-09-02T02:18:58.395Z,691
2018-09-02T02:20:05.344Z,692
2018-09-02T02:21:12.575Z,691
2018-09-02T02:22:19.802Z,689
2018-09-02T02:23:27.020Z,690
2018-09-02T02:24:34.239Z,690
2018-09-02T02:25:41.203Z,690
2018-09-02T02:26:48.414Z,689
2018-09-02T02:27:56.030Z,690
2018-09-02T02:29:03.248Z,690
2018-09-02T02:30:10.463Z,689
2018-09-02T02:31:17.682Z,689
2018-09-02T02:32:24.897Z,689
2018-09-02T02:33:32.113Z,689
2018-09-02T02:34:39.075Z,689
2018-09-02T02:35:46.288Z,691
2018-09-02T02:36:53.517Z,690
2018-09-02T02:38:00.456Z,691
2018-09-02T02:39:07.681Z,689
2018-09-02T02:40:14.890Z,690
2018-09-02T02:41:22.103Z,690
2018-09-02T02:42:29.334Z,690
2018-09-02T02:43:36.556Z,690
2018-09-02T02:44:43.500Z,689
2018-09-02T02:45:50.718Z,689
2018-09-02T02:46:57.933Z,688
2018-09-02T02:48:05.148Z,689
2018-09-02T02:49:12.365Z,687
2018-09-02T02:50:19.586Z,689
2018-09-02T02:51:26.796Z,688
2018-09-02T02:52:34.028Z,688
2018-09-02T02:53:41.241Z,688
2018-09-02T02:54:48.456Z,687
2018-09-02T02:55:55.669Z,687
2018-09-02T02:57:02.885Z,687
2018-09-02T02:58:10.100Z,687
2018-09-02T02:59:17.310Z,686
2018-09-02T03:00:24.529Z,686
2018-09-02T03:01:31.816Z,687
2018-09-02T03:02:39.045Z,687
2018-09-02T03:03:46.278Z,687
2018-09-02T03:04:53.489Z,687
2018-09-02T03:06:00.700Z,686
2018-09-02T03:07:07.918Z,687
2018-09-02T03:08:14.861Z,686
2018-09-02T03:09:22.074Z,687
2018-09-02T03:10:29.285Z,687
2018-09-02T03:11:36.232Z,687
2018-09-02T03:12:43.467Z,686
2018-09-02T03:13:50.687Z,687
2018-09-02T03:14:57.915Z,685
2018-09-02T03:16:05.140Z,686
2018-09-02T03:17:12.348Z,686
2018-09-02T03:18:19.565Z,686
2018-09-02T03:19:26.779Z,687
2018-09-02T03:20:34.003Z,686
2018-09-02T03:21:41.218Z,687
2018-09-02T03:22:48.437Z,686
2018-09-02T03:23:55.647Z,685
2018-09-02T03:25:02.599Z,685
2018-09-02T03:26:09.822Z,685
2018-09-02T03:27:16.768Z,685
2018-09-02T03:28:24.004Z,685
2018-09-02T03:29:31.225Z,685
2018-09-02T03:30:38.447Z,686
2018-09-02T03:31:45.660Z,686
2018-09-02T03:32:52.875Z,685
2018-09-02T03:33:59.820Z,684
2018-09-02T03:35:07.037Z,685
2018-09-02T03:36:14.253Z,685
2018-09-02T03:37:36.122Z,685
2018-09-02T03:38:43.061Z,686
2018-09-02T03:39:50.280Z,685
2018-09-02T03:40:57.498Z,685
2018-09-02T03:42:04.721Z,684
2018-09-02T03:43:11.651Z,686
2018-09-02T03:44:18.878Z,686
2018-09-02T03:45:26.091Z,686
2018-09-02T03:46:33.323Z,685
2018-09-02T03:47:40.540Z,686
2018-09-02T03:48:47.502Z,684
2018-09-02T03:49:54.714Z,684
2018-09-02T03:51:01.930Z,685
2018-09-02T03:52:09.147Z,684
2018-09-02T03:53:16.377Z,684
2018-09-02T03:54:23.591Z,683
2018-09-02T03:55:30.821Z,683
2018-09-02T03:56:38.039Z,683
2018-09-02T03:57:45.275Z,683
2018-09-02T03:58:52.488Z,684
2018-09-02T03:59:59.719Z,683
2018-09-02T04:01:06.933Z,683
2018-09-02T04:02:14.154Z,682
2018-09-02T04:03:21.363Z,683
2018-09-02T04:04:28.573Z,683
2018-09-02T04:05:35.792Z,683
2018-09-02T04:06:43.026Z,682
2018-09-02T04:07:50.240Z,683
2018-09-02T04:08:57.516Z,683
2018-09-02T04:10:04.740Z,683
2018-09-02T04:11:12.108Z,683
2018-09-02T04:12:19.320Z,682
2018-09-02T04:13:26.601Z,682
2018-09-02T04:14:33.825Z,682
2018-09-02T04:15:41.040Z,682
2018-09-02T04:16:48.290Z,683
2018-09-02T04:17:55.532Z,682
2018-09-02T04:19:02.750Z,681
2018-09-02T04:20:09.698Z,681
2018-09-02T04:21:16.915Z,682
2018-09-02T04:22:24.133Z,683
2018-09-02T04:23:31.348Z,681
2018-09-02T04:24:38.575Z,682
2018-09-02T04:25:45.528Z,681
2018-09-02T04:26:52.750Z,681
2018-09-02T04:27:59.961Z,680
2018-09-02T04:29:07.189Z,681
2018-09-02T04:30:14.134Z,680
2018-09-02T04:31:21.365Z,680
2018-09-02T04:32:28.586Z,679
2018-09-02T04:33:35.969Z,681
2018-09-02T04:34:43.195Z,679
2018-09-02T04:35:50.412Z,680
2018-09-02T04:36:57.356Z,679
2018-09-02T04:38:04.567Z,679
2018-09-02T04:39:11.789Z,680
2018-09-02T04:40:19.006Z,680
2018-09-02T04:41:26.223Z,679
2018-09-02T04:42:33.433Z,677
2018-09-02T04:43:40.645Z,678
2018-09-02T04:44:47.857Z,678
2018-09-02T04:45:55.076Z,678
2018-09-02T04:47:02.294Z,678
2018-09-02T04:48:09.517Z,678
2018-09-02T04:49:16.454Z,678
2018-09-02T04:50:23.670Z,677
2018-09-02T04:51:30.900Z,677
2018-09-02T04:52:38.116Z,677
2018-09-02T04:53:45.349Z,676
2018-09-02T04:54:52.292Z,678
2018-09-02T04:55:59.522Z,676
2018-09-02T04:57:06.736Z,676
2018-09-02T04:58:13.721Z,676
2018-09-02T04:59:20.920Z,676
2018-09-02T05:00:28.189Z,676
2018-09-02T05:01:35.206Z,676
2018-09-02T05:02:42.655Z,676
2018-09-02T05:03:49.872Z,676
2018-09-02T05:04:57.105Z,676
2018-09-02T05:06:04.327Z,676
2018-09-02T05:07:11.574Z,674
2018-09-02T05:08:18.790Z,674
2018-09-02T05:09:26.251Z,675
2018-09-02T05:10:33.189Z,674
2018-09-02T05:11:40.626Z,674
2018-09-02T05:12:47.845Z,674
2018-09-02T05:13:55.105Z,674
2018-09-02T05:15:02.306Z,675
2018-09-02T05:16:09.526Z,675
2018-09-02T05:17:16.741Z,674
2018-09-02T05:18:23.991Z,675
2018-09-02T05:19:31.202Z,674
2018-09-02T05:20:38.438Z,675
2018-09-02T05:21:45.381Z,676
2018-09-02T05:22:52.618Z,674
2018-09-02T05:23:59.830Z,674
2018-09-02T05:25:07.064Z,674
2018-09-02T05:26:14.283Z,673
2018-09-02T05:27:21.506Z,673
2018-09-02T05:28:28.719Z,673
2018-09-02T05:29:35.934Z,673
2018-09-02T05:30:43.151Z,673
2018-09-02T05:31:50.389Z,673
2018-09-02T05:32:57.602Z,673
2018-09-02T05:34:04.835Z,672
2018-09-02T05:35:11.776Z,672
2018-09-02T05:36:18.726Z,672
2018-09-02T05:37:25.665Z,672
2018-09-02T05:38:32.890Z,672
2018-09-02T05:39:39.833Z,672
2018-09-02T05:40:47.051Z,671
2018-09-02T05:41:54.266Z,672
2018-09-02T05:43:01.486Z,673
2018-09-02T05:44:09.100Z,671
2018-09-02T05:45:16.561Z,673
2018-09-02T05:46:23.778Z,671
2018-09-02T05:47:30.987Z,672
2018-09-02T05:48:38.201Z,671
2018-09-02T05:49:45.475Z,672
2018-09-02T05:50:52.691Z,672
2018-09-02T05:51:59.918Z,671
2018-09-02T05:53:07.137Z,670
2018-09-02T05:54:14.360Z,670
2018-09-02T05:55:21.578Z,671
2018-09-02T05:56:28.793Z,671
2018-09-02T05:57:36.143Z,670
2018-09-02T05:58:43.479Z,670
2018-09-02T05:59:50.695Z,671
2018-09-02T06:00:57.915Z,670
2018-09-02T06:02:05.129Z,670
2018-09-02T06:03:12.357Z,669
2018-09-02T06:04:19.581Z,669
2018-09-02T06:05:26.814Z,669
2018-09-02T06:06:34.030Z,669
2018-09-02T06:07:41.250Z,669
2018-09-02T06:08:48.470Z,668
2018-09-02T06:09:55.694Z,669
2018-09-02T06:11:02.908Z,669
2018-09-02T06:12:10.129Z,669
2018-09-02T06:13:17.340Z,668
2018-09-02T06:14:24.573Z,669
2018-09-02T06:15:31.793Z,669
2018-09-02T06:16:39.022Z,669
2018-09-02T06:17:46.240Z,670
2018-09-02T06:18:53.460Z,669
2018-09-02T06:20:00.676Z,668
2018-09-02T06:21:07.891Z,669
2018-09-02T06:22:15.116Z,668
2018-09-02T06:23:22.334Z,668
2018-09-02T06:24:29.550Z,670
2018-09-02T06:25:36.779Z,668
2018-09-02T06:26:43.738Z,669
2018-09-02T06:27:50.941Z,668
2018-09-02T06:28:58.160Z,669
2018-09-02T06:30:05.499Z,668
2018-09-02T06:31:12.786Z,667
2018-09-02T06:32:19.738Z,667
2018-09-02T06:33:26.959Z,668
2018-09-02T06:34:33.971Z,667
2018-09-02T06:35:41.360Z,667
2018-09-02T06:36:48.574Z,666
2018-09-02T06:37:55.791Z,668
2018-09-02T06:39:03.005Z,665
2018-09-02T06:40:10.219Z,666
2018-09-02T06:41:17.456Z,666
2018-09-02T06:42:24.671Z,666
2018-09-02T06:43:31.639Z,665
2018-09-02T06:44:38.860Z,665
2018-09-02T06:45:46.091Z,664
2018-09-02T06:46:53.207Z,664
2018-09-02T06:48:00.437Z,663
2018-09-02T06:49:07.380Z,663
2018-09-02T06:50:14.314Z,663
2018-09-02T06:51:21.532Z,662
2018-09-02T06:52:28.781Z,662
2018-09-02T06:53:36.006Z,663
2018-09-02T06:54:43.221Z,662
2018-09-02T06:55:50.439Z,661
2018-09-02T06:56:57.671Z,661
2018-09-02T06:58:04.893Z,660
2018-09-02T06:59:11.866Z,658
2018-09-02T07:00:33.735Z,659
2018-09-02T07:01:40.967Z,658
2018-09-02T07:02:48.180Z,659
2018-09-02T07:03:55.400Z,658
2018-09-02T07:05:02.623Z,657
2018-09-02T07:06:09.838Z,659
2018-09-02T07:07:16.958Z,657
2018-09-02T07:08:24.164Z,659
2018-09-02T07:09:31.387Z,659
2018-09-02T07:10:38.608Z,656
2018-09-02T07:11:45.570Z,656
2018-09-02T07:12:52.775Z,657
2018-09-02T07:13:59.992Z,658
2018-09-02T07:15:07.231Z,659
2018-09-02T07:16:14.447Z,659
2018-09-02T07:17:21.408Z,659
2018-09-02T07:18:28.622Z,660
2018-09-02T07:19:35.835Z,659
2018-09-02T07:20:43.061Z,660
2018-09-02T07:21:50.278Z,660
2018-09-02T07:22:57.492Z,659
2018-09-02T07:24:04.710Z,660
2018-09-02T07:25:11.931Z,661
2018-09-02T07:26:18.890Z,661
2018-09-02T07:27:25.834Z,660
2018-09-02T07:28:33.069Z,658
2018-09-02T07:29:40.289Z,657
2018-09-02T07:30:47.513Z,657
2018-09-02T07:31:54.730Z,658
2018-09-02T07:33:01.948Z,655
2018-09-02T07:34:09.171Z,656
2018-09-02T07:35:16.386Z,656
2018-09-02T07:36:23.606Z,657
2018-09-02T07:37:30.825Z,658
2018-09-02T07:38:38.051Z,659
2018-09-02T07:39:45.270Z,659
2018-09-02T07:40:52.486Z,661
2018-09-02T07:41:59.704Z,663
2018-09-02T07:43:06.922Z,662
2018-09-02T07:44:14.430Z,664
2018-09-02T07:45:21.368Z,664
2018-09-02T07:46:28.585Z,664
2018-09-02T07:47:35.798Z,664
2018-09-02T07:48:43.022Z,663
2018-09-02T07:49:50.237Z,665
2018-09-02T07:50:57.182Z,664
2018-09-02T07:52:04.401Z,663
2018-09-02T07:53:11.616Z,663
2018-09-02T07:54:18.862Z,663
2018-09-02T07:55:26.134Z,664
2018-09-02T07:56:33.353Z,663
2018-09-02T07:57:40.583Z,663
2018-09-02T07:58:47.804Z,662
2018-09-02T07:59:55.035Z,663
2018-09-02T08:01:02.252Z,662
2018-09-02T08:02:09.479Z,661
2018-09-02T08:03:16.699Z,661
2018-09-02T08:04:23.922Z,660
2018-09-02T08:05:31.134Z,661
2018-09-02T08:06:38.358Z,659
2018-09-02T08:07:45.573Z,660
2018-09-02T08:08:52.791Z,659
2018-09-02T08:10:00.019Z,659
2018-09-02T08:11:07.230Z,658
2018-09-02T08:12:14.524Z,656
2018-09-02T08:13:21.731Z,658
2018-09-02T08:14:28.956Z,658
2018-09-02T08:15:36.170Z,659
2018-09-02T08:16:43.386Z,661
2018-09-02T08:17:50.613Z,660
2018-09-02T08:18:57.840Z,659
2018-09-02T08:20:05.053Z,658
2018-09-02T08:21:12.273Z,657
2018-09-02T08:22:19.507Z,658
2018-09-02T08:23:26.459Z,658
2018-09-02T08:24:33.672Z,657
2018-09-02T08:25:40.623Z,657
2018-09-02T08:26:48.065Z,657
2018-09-02T08:27:55.390Z,656
2018-09-02T08:29:02.612Z,657
2018-09-02T08:30:09.844Z,657
2018-09-02T08:31:16.526Z,656
2018-09-02T08:32:23.749Z,657
2018-09-02T08:33:30.974Z,655
2018-09-02T08:34:38.196Z,656
2018-09-02T08:35:45.418Z,655
2018-09-02T08:36:52.644Z,655
2018-09-02T08:37:59.688Z,654
2018-09-02T08:39:07.032Z,654
2018-09-02T08:40:14.394Z,653
2018-09-02T08:41:21.613Z,651
2018-09-02T08:42:28.852Z,651
2018-09-02T08:43:36.073Z,655
2018-09-02T08:44:43.295Z,652
2018-09-02T08:45:50.504Z,652
2018-09-02T08:46:57.729Z,650
2018-09-02T08:48:04.671Z,654
2018-09-02T08:49:11.631Z,656
2018-09-02T08:50:18.930Z,657
2018-09-02T08:51:26.236Z,656
2018-09-02T08:52:33.457Z,658
2018-09-02T08:53:40.697Z,658
2018-09-02T08:54:47.924Z,659
2018-09-02T08:55:55.265Z,659
2018-09-02T08:57:02.526Z,659
2018-09-02T08:58:09.748Z,660
2018-09-02T08:59:16.968Z,659
2018-09-02T09:00:24.191Z,657
2018-09-02T09:01:31.212Z,658
2018-09-02T09:02:38.466Z,658
2018-09-02T09:03:45.684Z,658
2018-09-02T09:04:52.922Z,655
2018-09-02T09:05:59.860Z,656
2018-09-02T09:07:07.078Z,656
2018-09-02T09:08:15.432Z,656
2018-09-02T09:09:23.511Z,656
2018-09-02T09:10:30.732Z,657
2018-09-02T09:11:37.948Z,656
2018-09-02T09:12:44.895Z,655
2018-09-02T09:13:51.842Z,657
2018-09-02T09:14:59.101Z,655
2018-09-02T09:16:06.323Z,655
2018-09-02T09:17:14.044Z,656
2018-09-02T09:18:21.510Z,656
2018-09-02T09:19:28.730Z,654
2018-09-02T09:20:36.173Z,655
2018-09-02T09:21:43.924Z,643
2018-09-02T09:22:51.331Z,656
2018-09-02T09:23:58.644Z,655
2018-09-02T09:25:05.684Z,657
2018-09-02T09:26:13.032Z,656
2018-09-02T09:27:20.257Z,655
2018-09-02T09:28:27.487Z,652
2018-09-02T09:29:34.713Z,656
2018-09-02T09:30:41.934Z,656
2018-09-02T09:31:49.152Z,656
2018-09-02T09:32:56.379Z,652
2018-09-02T09:34:03.604Z,655
2018-09-02T09:35:10.551Z,655
2018-09-02T09:36:17.768Z,654
2018-09-02T09:37:24.987Z,655
2018-09-02T09:38:32.216Z,652
2018-09-02T09:39:39.436Z,652
2018-09-02T09:40:46.670Z,653
2018-09-02T09:41:53.920Z,652
2018-09-02T09:43:00.878Z,652
2018-09-02T09:44:08.106Z,653
2018-09-02T09:45:15.336Z,649
2018-09-02T09:46:22.557Z,664
2018-09-02T09:47:29.784Z,665
2018-09-02T09:48:37.010Z,677
2018-09-02T09:49:44.231Z,676
2018-09-02T09:50:51.455Z,674
2018-09-02T09:51:58.679Z,676
2018-09-02T09:53:05.625Z,676
2018-09-02T09:54:12.858Z,676
2018-09-02T09:55:20.108Z,677
2018-09-02T09:56:27.337Z,677
2018-09-02T09:57:34.556Z,676
2018-09-02T09:58:41.775Z,676
2018-09-02T09:59:48.996Z,676
2018-09-02T10:00:56.261Z,675
2018-09-02T10:02:03.209Z,675
2018-09-02T10:03:10.427Z,675
2018-09-02T10:04:17.645Z,673
2018-09-02T10:05:24.871Z,674
2018-09-02T10:06:32.093Z,673
2018-09-02T10:07:39.312Z,672
2018-09-02T10:08:46.538Z,672
2018-09-02T10:09:53.925Z,670
2018-09-02T10:11:01.153Z,672
2018-09-02T10:12:08.377Z,670
2018-09-02T10:13:15.598Z,670
2018-09-02T10:14:22.549Z,671
2018-09-02T10:15:29.772Z,670
2018-09-02T10:16:36.723Z,670
2018-09-02T10:17:43.947Z,670
2018-09-02T10:18:51.188Z,671
2018-09-02T10:19:58.416Z,671
2018-09-02T10:21:05.632Z,672
2018-09-02T10:22:12.581Z,670
2018-09-02T10:23:19.258Z,671
2018-09-02T10:24:26.484Z,671
2018-09-02T10:25:33.711Z,671
2018-09-02T10:26:40.933Z,670
2018-09-02T10:27:48.156Z,671
2018-09-02T10:28:55.107Z,671
2018-09-02T10:30:02.338Z,670
2018-09-02T10:31:09.564Z,669
2018-09-02T10:32:16.810Z,671
2018-09-02T10:33:23.903Z,670
2018-09-02T10:34:31.374Z,669
2018-09-02T10:35:38.322Z,668
2018-09-02T10:36:45.559Z,669
2018-09-02T10:37:52.780Z,669
2018-09-02T10:39:00.011Z,669
2018-09-02T10:40:06.955Z,668
2018-09-02T10:41:14.404Z,669
2018-09-02T10:42:22.181Z,667
2018-09-02T10:43:29.417Z,669
2018-09-02T10:44:36.646Z,669
2018-09-02T10:45:43.878Z,668
2018-09-02T10:46:50.838Z,668
2018-09-02T10:47:58.071Z,668
2018-09-02T10:49:05.289Z,668
2018-09-02T10:50:12.516Z,669
2018-09-02T10:51:19.742Z,668
2018-09-02T10:52:26.964Z,667
2018-09-02T10:53:34.214Z,666
2018-09-02T10:54:41.441Z,667
2018-09-02T10:55:48.673Z,668
2018-09-02T10:56:55.907Z,667
2018-09-02T10:58:03.143Z,665
2018-09-02T10:59:10.367Z,665
2018-09-02T11:00:17.594Z,664
2018-09-02T11:01:24.830Z,664
2018-09-02T11:02:32.049Z,665
2018-09-02T11:03:39.293Z,665
2018-09-02T11:04:46.530Z,664
2018-09-02T11:06:08.394Z,664
2018-09-02T11:07:15.623Z,663
2018-09-02T11:08:22.845Z,662
2018-09-02T11:09:30.076Z,663
2018-09-02T11:10:37.295Z,662
2018-09-02T11:11:44.522Z,661
2018-09-02T11:12:51.741Z,660
2018-09-02T11:13:59.707Z,660
2018-09-02T11:15:07.466Z,658
2018-09-02T11:16:14.696Z,657
2018-09-02T11:17:21.943Z,659
2018-09-02T11:18:28.896Z,661
2018-09-02T11:19:36.139Z,660
2018-09-02T11:20:43.369Z,660
2018-09-02T11:21:50.615Z,660
2018-09-02T11:22:57.839Z,661
2018-09-02T11:24:05.065Z,662
2018-09-02T11:25:12.290Z,664
2018-09-02T11:26:19.544Z,663
2018-09-02T11:27:26.749Z,663
2018-09-02T11:28:33.965Z,665
2018-09-02T11:29:41.197Z,663
2018-09-02T11:30:48.414Z,664
2018-09-02T11:31:55.664Z,664
2018-09-02T11:33:02.900Z,663
2018-09-02T11:34:10.125Z,664
2018-09-02T11:35:17.231Z,662
2018-09-02T11:36:23.775Z,661
2018-09-02T11:37:30.725Z,662
2018-09-02T11:38:37.885Z,664
2018-09-02T11:39:44.832Z,664
2018-09-02T11:40:52.076Z,664
2018-09-02T11:41:59.305Z,664
2018-09-02T11:43:06.535Z,664
2018-09-02T11:44:13.785Z,664
2018-09-02T11:45:21.233Z,666
2018-09-02T11:46:28.483Z,666
2018-09-02T11:47:35.706Z,667
2018-09-02T11:48:42.936Z,668
2018-09-02T11:49:50.174Z,668
2018-09-02T11:50:57.397Z,667
2018-09-02T11:52:04.624Z,667
2018-09-02T11:53:11.594Z,667
2018-09-02T11:54:18.823Z,666
2018-09-02T11:55:26.080Z,665
2018-09-02T11:56:33.043Z,664
2018-09-02T11:57:40.427Z,664
2018-09-02T11:58:47.728Z,663
2018-09-02T11:59:54.965Z,664
2018-09-02T12:01:02.183Z,664
2018-09-02T12:02:09.409Z,665
2018-09-02T12:03:16.633Z,665
2018-09-02T12:04:23.856Z,664
2018-09-02T12:05:31.096Z,665
2018-09-02T12:06:38.323Z,665
2018-09-02T12:07:45.547Z,665
2018-09-02T12:08:52.765Z,666
2018-09-02T12:09:59.994Z,665
2018-09-02T12:11:06.948Z,666
2018-09-02T12:12:14.202Z,665
2018-09-02T12:13:21.150Z,665
2018-09-02T12:14:28.100Z,664
2018-09-02T12:15:36.333Z,664
2018-09-02T12:16:43.290Z,664
2018-09-02T12:17:50.510Z,666
2018-09-02T12:18:57.741Z,665
2018-09-02T12:20:04.970Z,665
2018-09-02T12:21:12.344Z,665
2018-09-02T12:22:19.588Z,663
2018-09-02T12:23:26.823Z,663
2018-09-02T12:24:34.066Z,664
2018-09-02T12:25:41.313Z,664
2018-09-02T12:26:48.544Z,663
2018-09-02T12:27:55.776Z,663
2018-09-02T12:29:03.013Z,664
2018-09-02T12:30:10.241Z,663
2018-09-02T12:31:17.187Z,664
2018-09-02T12:32:24.415Z,664
2018-09-02T12:33:31.382Z,664
2018-09-02T12:34:38.614Z,665
2018-09-02T12:35:45.846Z,664
2018-09-02T12:36:53.084Z,664
2018-09-02T12:38:00.311Z,662
2018-09-02T12:39:07.543Z,662
2018-09-02T12:40:14.517Z,662
2018-09-02T12:41:21.737Z,663
2018-09-02T12:42:28.970Z,663
2018-09-02T12:43:36.187Z,661
2018-09-02T12:44:43.138Z,662
2018-09-02T12:45:50.437Z,661
2018-09-02T12:46:57.672Z,661
2018-09-02T12:48:05.142Z,663
2018-09-02T12:49:12.451Z,662
2018-09-02T12:50:19.683Z,663
2018-09-02T12:51:26.931Z,661
2018-09-02T12:52:34.162Z,661
2018-09-02T12:53:41.410Z,661
2018-09-02T12:54:48.648Z,661
2018-09-02T12:55:55.608Z,661
2018-09-02T12:57:02.829Z,658
2018-09-02T12:58:10.079Z,659
2018-09-02T12:59:17.308Z,661
2018-09-02T13:00:24.559Z,659
2018-09-02T13:01:31.790Z,659
2018-09-02T13:02:38.757Z,656
2018-09-02T13:03:45.994Z,656
2018-09-02T13:04:53.216Z,655
2018-09-02T13:06:00.438Z,653
2018-09-02T13:07:07.883Z,652
2018-09-02T13:08:15.136Z,653
2018-09-02T13:09:22.225Z,655
2018-09-02T13:10:29.532Z,654
2018-09-02T13:11:36.496Z,655
2018-09-02T13:12:43.857Z,656
2018-09-02T13:13:51.063Z,655
2018-09-02T13:14:58.296Z,655
2018-09-02T13:16:05.742Z,655
2018-09-02T13:17:12.964Z,655
2018-09-02T13:18:20.203Z,655
2018-09-02T13:19:27.433Z,655
2018-09-02T13:20:34.697Z,654
2018-09-02T13:21:41.639Z,655
2018-09-02T13:22:48.876Z,654
2018-09-02T13:23:56.311Z,652
2018-09-02T13:25:03.239Z,652
2018-09-02T13:26:10.502Z,650
2018-09-02T13:27:17.469Z,650
2018-09-02T13:28:24.698Z,650
2018-09-02T13:29:31.929Z,649
2018-09-02T13:30:39.178Z,650
2018-09-02T13:31:46.392Z,650
2018-09-02T13:32:53.718Z,649
2018-09-02T13:34:00.709Z,649
2018-09-02T13:35:07.943Z,648
2018-09-02T13:36:14.897Z,646
2018-09-02T13:37:22.140Z,647
2018-09-02T13:38:29.092Z,646
2018-09-02T13:39:36.322Z,647
2018-09-02T13:40:43.555Z,645
2018-09-02T13:41:50.503Z,644
2018-09-02T13:42:57.793Z,645
2018-09-02T13:44:05.156Z,648
2018-09-02T13:45:12.385Z,650
2018-09-02T13:46:19.364Z,653
2018-09-02T13:47:26.331Z,654
2018-09-02T13:48:34.001Z,653
2018-09-02T13:49:41.563Z,653
2018-09-02T13:50:48.784Z,653
2018-09-02T13:51:56.031Z,653
2018-09-02T13:53:03.251Z,656
2018-09-02T13:54:10.472Z,657
2018-09-02T13:55:17.695Z,656
2018-09-02T13:56:24.937Z,655
2018-09-02T13:57:31.342Z,655
2018-09-02T13:58:38.577Z,656
2018-09-02T13:59:46.352Z,655
2018-09-02T14:00:53.972Z,653
2018-09-02T14:02:01.253Z,653
2018-09-02T14:03:08.472Z,655
2018-09-02T14:04:15.699Z,655
2018-09-02T14:05:22.919Z,653
2018-09-02T14:06:30.181Z,654
2018-09-02T14:07:37.505Z,655
2018-09-02T14:08:44.769Z,653
2018-09-02T14:09:52.026Z,656
2018-09-02T14:10:58.960Z,655
2018-09-02T14:12:05.921Z,655
2018-09-02T14:13:13.148Z,655
2018-09-02T14:14:19.852Z,655
2018-09-02T14:15:27.079Z,655
2018-09-02T14:16:34.307Z,656
2018-09-02T14:17:41.266Z,655
2018-09-02T14:18:48.210Z,655
2018-09-02T14:19:55.446Z,656
2018-09-02T14:21:02.667Z,655
2018-09-02T14:22:09.881Z,655
2018-09-02T14:23:17.113Z,654
2018-09-02T14:24:24.340Z,654
2018-09-02T14:25:31.558Z,655
2018-09-02T14:26:38.788Z,655
2018-09-02T14:27:45.774Z,654
2018-09-02T14:28:53.001Z,655
2018-09-02T14:30:00.243Z,655
2018-09-02T14:31:07.470Z,654
2018-09-02T14:32:14.689Z,654
2018-09-02T14:33:21.652Z,654
2018-09-02T14:34:28.879Z,653
2018-09-02T14:35:36.109Z,653
2018-09-02T14:36:43.339Z,653
2018-09-02T14:37:50.559Z,652
2018-09-02T14:38:57.781Z,652
2018-09-02T14:40:05.000Z,651
2018-09-02T14:41:11.977Z,652
2018-09-02T14:42:19.196Z,653
2018-09-02T14:43:26.149Z,651
2018-09-02T14:44:33.391Z,653
2018-09-02T14:45:40.616Z,652
2018-09-02T14:46:47.842Z,653
2018-09-02T14:47:55.089Z,652
2018-09-02T14:49:02.355Z,653
2018-09-02T14:50:09.567Z,655
2018-09-02T14:51:16.787Z,653
2018-09-02T14:52:24.023Z,655
2018-09-02T14:53:31.246Z,655
2018-09-02T14:54:38.473Z,657
2018-09-02T14:55:45.704Z,657
2018-09-02T14:56:53.128Z,656
2018-09-02T14:58:00.366Z,657
2018-09-02T14:59:07.613Z,656
2018-09-02T15:00:14.845Z,656
2018-09-02T15:01:21.804Z,655
2018-09-02T15:02:29.021Z,655
2018-09-02T15:03:36.265Z,655
2018-09-02T15:04:43.220Z,656
2018-09-02T15:05:50.465Z,655
2018-09-02T15:06:57.421Z,654
2018-09-02T15:08:04.647Z,656
2018-09-02T15:09:11.889Z,655
2018-09-02T15:10:19.135Z,654
2018-09-02T15:11:26.608Z,653
2018-09-02T15:12:33.920Z,655
2018-09-02T15:13:40.914Z,655
2018-09-02T15:14:47.603Z,654
2018-09-02T15:15:54.846Z,655
2018-09-02T15:17:02.097Z,655
2018-09-02T15:18:09.046Z,655
2018-09-02T15:19:16.016Z,654
2018-09-02T15:20:23.276Z,654
2018-09-02T15:21:30.517Z,654
2018-09-02T15:22:37.767Z,655
2018-09-02T15:23:44.464Z,654
2018-09-02T15:24:51.701Z,655
2018-09-02T15:25:58.659Z,652
2018-09-02T15:27:05.971Z,654